createdAt,value
2022-10-01T00:00:23.917Z,4.04
2022-10-01T00:01:23.966Z,4.02
2022-10-01T00:02:23.990Z,3.98
2022-10-01T00:03:23.879Z,4.07
2022-10-01T00:04:23.870Z,3.92
2022-10-01T00:05:23.859Z,3.98
2022-10-01T00:06:23.853Z,4.02
2022-10-01T00:07:23.840Z,3.95
2022-10-01T00:08:24.014Z,3.95
2022-10-01T00:09:23.824Z,3.95
2022-10-01T00:10:23.808Z,3.95
2022-10-01T00:11:23.799Z,4.02
2022-10-01T00:12:23.789Z,3.88
2022-10-01T00:13:23.773Z,3.96
2022-10-01T00:14:23.858Z,3.86
2022-10-01T00:15:23.756Z,3.86
2022-10-01T00:16:23.794Z,3.95
2022-10-01T00:17:23.733Z,3.98
2022-10-01T00:18:23.722Z,3.96
2022-10-01T00:19:23.822Z,3.96
2022-10-01T00:20:23.808Z,3.92
2022-10-01T00:21:23.705Z,4.02
2022-10-01T00:22:23.680Z,3.98
2022-10-01T00:23:23.666Z,3.99
2022-10-01T00:24:23.685Z,3.99
2022-10-01T00:25:23.659Z,3.95
2022-10-01T00:26:23.697Z,3.99
2022-10-01T00:27:23.625Z,3.98
2022-10-01T00:28:23.678Z,3.92
2022-10-01T00:29:23.716Z,3.96
2022-10-01T00:30:23.597Z,3.95
2022-10-01T00:31:23.703Z,4.00
2022-10-01T00:32:23.573Z,3.98
2022-10-01T00:33:23.564Z,4.00
2022-10-01T00:34:23.605Z,4.08
2022-10-01T00:35:23.551Z,3.99
2022-10-01T00:36:23.531Z,4.00
2022-10-01T00:37:23.595Z,3.92
2022-10-01T00:38:23.511Z,3.96
2022-10-01T00:39:23.516Z,3.93
2022-10-01T00:40:23.508Z,3.99
2022-10-01T00:41:23.484Z,3.96
2022-10-01T00:42:23.521Z,3.99
2022-10-01T00:43:23.452Z,3.95
2022-10-01T00:44:23.444Z,4.02
2022-10-01T00:45:23.447Z,3.98
2022-10-01T00:46:23.480Z,4.00
2022-10-01T00:47:23.413Z,3.99
2022-10-01T00:48:23.474Z,3.89
2022-10-01T00:49:23.385Z,3.98
2022-10-01T00:50:23.375Z,3.93
2022-10-01T00:51:23.379Z,4.00
2022-10-01T00:52:23.359Z,3.99
2022-10-01T00:53:23.346Z,3.98
2022-10-01T00:54:23.404Z,3.93
2022-10-01T00:55:23.327Z,3.96
2022-10-01T00:56:23.350Z,3.93
2022-10-01T00:57:23.304Z,4.06
2022-10-01T00:58:23.293Z,4.08
2022-10-01T00:59:23.283Z,3.99
2022-10-01T01:00:23.289Z,3.98
2022-10-01T01:01:23.318Z,3.96
2022-10-01T01:02:23.308Z,4.04
2022-10-01T01:03:23.239Z,3.99
2022-10-01T01:04:23.227Z,3.99
2022-10-01T01:05:23.230Z,3.93
2022-10-01T01:06:23.326Z,4.06
2022-10-01T01:07:23.207Z,4.07
2022-10-01T01:08:23.186Z,4.14
2022-10-01T01:09:23.180Z,4.10
2022-10-01T01:10:23.161Z,4.11
2022-10-01T01:11:23.158Z,4.13
2022-10-01T01:12:23.210Z,4.08
2022-10-01T01:13:23.144Z,4.11
2022-10-01T01:14:23.119Z,4.18
2022-10-01T01:15:23.111Z,4.13
2022-10-01T01:16:23.234Z,4.10
2022-10-01T01:17:23.090Z,4.13
2022-10-01T01:18:23.084Z,4.00
2022-10-01T01:19:23.129Z,4.02
2022-10-01T01:20:23.056Z,3.96
2022-10-01T01:21:23.046Z,4.00
2022-10-01T01:22:23.047Z,4.14
2022-10-01T01:23:23.023Z,4.02
2022-10-01T01:24:23.010Z,3.95
2022-10-01T01:25:23.081Z,4.02
2022-10-01T01:26:23.006Z,4.04
2022-10-01T01:27:22.980Z,4.08
2022-10-01T01:28:23.084Z,3.98
2022-10-01T01:29:22.961Z,4.02
2022-10-01T01:30:23.164Z,3.95
2022-10-01T01:31:23.071Z,3.90
2022-10-01T01:32:22.942Z,3.89
2022-10-01T01:33:22.917Z,3.95
2022-10-01T01:34:22.919Z,3.90
2022-10-01T01:35:22.900Z,3.95
2022-10-01T01:36:22.887Z,3.90
2022-10-01T01:37:22.944Z,3.84
2022-10-01T01:38:22.873Z,3.80
2022-10-01T01:39:22.857Z,3.70
2022-10-01T01:40:22.848Z,3.78
2022-10-01T01:41:22.834Z,3.60
2022-10-01T01:42:22.820Z,3.68
2022-10-01T01:43:22.891Z,3.75
2022-10-01T01:44:22.825Z,3.62
2022-10-01T01:45:22.791Z,3.70
2022-10-01T01:46:22.897Z,3.75
2022-10-01T01:47:22.768Z,3.71
2022-10-01T01:48:22.757Z,3.57
2022-10-01T01:49:22.763Z,3.71
2022-10-01T01:50:22.749Z,3.71
2022-10-01T01:51:22.728Z,3.74
2022-10-01T01:52:22.713Z,3.60
2022-10-01T01:53:22.701Z,3.57
2022-10-01T01:54:22.695Z,3.71
2022-10-01T01:55:22.768Z,3.74
2022-10-01T01:56:22.673Z,3.78
2022-10-01T01:57:22.664Z,3.72
2022-10-01T01:58:22.654Z,3.72
2022-10-01T01:59:22.650Z,3.92
2022-10-01T02:00:22.672Z,3.78
2022-10-01T02:01:22.705Z,3.81
2022-10-01T02:02:22.681Z,3.78
2022-10-01T02:03:22.600Z,3.98
2022-10-01T02:04:22.589Z,3.88
2022-10-01T02:05:22.576Z,3.80
2022-10-01T02:06:22.577Z,3.90
2022-10-01T02:07:22.649Z,3.67
2022-10-01T02:08:22.542Z,3.77
2022-10-01T02:09:22.532Z,3.72
2022-10-01T02:10:22.533Z,3.75
2022-10-01T02:11:22.513Z,3.88
2022-10-01T02:12:22.500Z,3.67
2022-10-01T02:13:22.552Z,3.67
2022-10-01T02:14:22.478Z,3.72
2022-10-01T02:15:22.484Z,3.70
2022-10-01T02:16:22.571Z,3.78
2022-10-01T02:17:22.445Z,3.71
2022-10-01T02:18:22.448Z,3.77
2022-10-01T02:19:22.504Z,3.81
2022-10-01T02:20:22.445Z,3.80
2022-10-01T02:21:22.419Z,3.82
2022-10-01T02:22:22.394Z,3.84
2022-10-01T02:23:22.382Z,3.84
2022-10-01T02:24:22.379Z,3.86
2022-10-01T02:25:22.445Z,3.90
2022-10-01T02:26:22.348Z,3.95
2022-10-01T02:27:22.353Z,3.86
2022-10-01T02:28:22.366Z,3.89
2022-10-01T02:29:22.319Z,3.99
2022-10-01T02:30:22.307Z,3.96
2022-10-01T02:31:22.428Z,3.98
2022-10-01T02:32:22.314Z,3.92
2022-10-01T02:33:22.286Z,3.96
2022-10-01T02:34:22.260Z,3.99
2022-10-01T02:35:22.250Z,4.06
2022-10-01T02:36:22.245Z,4.06
2022-10-01T02:37:22.321Z,4.13
2022-10-01T02:38:22.233Z,4.10
2022-10-01T02:39:22.223Z,4.18
2022-10-01T02:40:22.197Z,4.17
2022-10-01T02:41:22.188Z,4.13
2022-10-01T02:42:22.178Z,4.16
2022-10-01T02:43:22.187Z,4.11
2022-10-01T02:44:22.167Z,4.31
2022-10-01T02:45:22.153Z,4.25
2022-10-01T02:46:22.234Z,4.25
2022-10-01T02:47:22.126Z,4.26
2022-10-01T02:48:22.139Z,4.11
2022-10-01T02:49:22.222Z,4.24
2022-10-01T02:50:22.097Z,4.11
2022-10-01T02:51:22.080Z,4.26
2022-10-01T02:52:22.070Z,4.21
2022-10-01T02:53:22.084Z,4.25
2022-10-01T02:54:22.368Z,4.14
2022-10-01T02:55:22.055Z,4.24
2022-10-01T02:56:22.028Z,4.04
2022-10-01T02:57:22.018Z,4.14
2022-10-01T02:58:22.217Z,4.17
2022-10-01T02:59:21.998Z,4.04
2022-10-01T03:00:21.999Z,4.07
2022-10-01T03:01:22.080Z,4.11
2022-10-01T03:02:22.069Z,4.11
2022-10-01T03:03:21.950Z,4.17
2022-10-01T03:04:21.964Z,4.07
2022-10-01T03:05:21.939Z,4.08
2022-10-01T03:06:21.932Z,4.08
2022-10-01T03:07:22.040Z,4.07
2022-10-01T03:08:21.901Z,4.07
2022-10-01T03:09:21.888Z,4.07
2022-10-01T03:10:21.889Z,3.95
2022-10-01T03:11:21.895Z,4.06
2022-10-01T03:12:21.856Z,4.06
2022-10-01T03:13:21.943Z,4.07
2022-10-01T03:14:21.836Z,3.99
2022-10-01T03:15:21.826Z,3.95
2022-10-01T03:16:21.887Z,4.08
2022-10-01T03:17:21.816Z,4.07
2022-10-01T03:18:21.793Z,4.10
2022-10-01T03:19:21.807Z,4.16
2022-10-01T03:20:21.794Z,4.10
2022-10-01T03:21:21.883Z,4.02
2022-10-01T03:22:21.745Z,4.11
2022-10-01T03:23:21.735Z,4.17
2022-10-01T03:24:21.724Z,4.00
2022-10-01T03:25:21.777Z,4.10
2022-10-01T03:26:21.720Z,4.17
2022-10-01T03:27:21.695Z,4.16
2022-10-01T03:28:21.753Z,4.14
2022-10-01T03:29:21.670Z,4.11
2022-10-01T03:30:21.668Z,4.24
2022-10-01T03:31:21.751Z,4.32
2022-10-01T03:32:21.652Z,4.21
2022-10-01T03:33:21.627Z,4.24
2022-10-01T03:34:21.623Z,4.28
2022-10-01T03:35:21.622Z,4.20
2022-10-01T03:36:21.632Z,4.32
2022-10-01T03:37:21.656Z,4.29
2022-10-01T03:38:21.594Z,4.25
2022-10-01T03:39:21.574Z,4.44
2022-10-01T03:40:21.566Z,4.42
2022-10-01T03:41:21.543Z,4.46
2022-10-01T03:42:21.538Z,4.49
2022-10-01T03:43:21.528Z,4.44
2022-10-01T03:44:21.523Z,4.46
2022-10-01T03:45:21.604Z,4.53
2022-10-01T03:46:21.559Z,4.65
2022-10-01T03:47:21.490Z,4.65
2022-10-01T03:48:21.476Z,4.61
2022-10-01T03:49:21.604Z,4.67
2022-10-01T03:50:21.449Z,4.65
2022-10-01T03:51:21.435Z,4.75
2022-10-01T03:52:21.455Z,4.72
2022-10-01T03:53:21.412Z,4.62
2022-10-01T03:54:21.459Z,4.67
2022-10-01T03:55:21.393Z,4.62
2022-10-01T03:56:21.381Z,4.65
2022-10-01T03:57:21.368Z,4.59
2022-10-01T03:58:21.365Z,4.54
2022-10-01T03:59:21.360Z,4.59
2022-10-01T04:00:21.446Z,4.64
2022-10-01T04:01:21.389Z,4.64
2022-10-01T04:02:21.440Z,4.62
2022-10-01T04:03:21.308Z,4.64
2022-10-01T04:04:21.306Z,4.62
2022-10-01T04:05:21.283Z,4.64
2022-10-01T04:06:21.372Z,4.80
2022-10-01T04:07:21.268Z,4.67
2022-10-01T04:08:24.368Z,4.68
2022-10-01T04:09:21.256Z,4.59
2022-10-01T04:10:21.230Z,4.59
2022-10-01T04:11:21.219Z,4.50
2022-10-01T04:12:21.322Z,4.51
2022-10-01T04:13:21.202Z,4.64
2022-10-01T04:14:21.196Z,4.67
2022-10-01T04:15:21.181Z,4.57
2022-10-01T04:16:21.315Z,4.56
2022-10-01T04:17:21.161Z,4.53
2022-10-01T04:18:21.210Z,4.61
2022-10-01T04:19:21.147Z,4.47
2022-10-01T04:20:21.120Z,4.47
2022-10-01T04:21:21.113Z,4.46
2022-10-01T04:22:21.104Z,4.31
2022-10-01T04:23:21.094Z,4.28
2022-10-01T04:24:21.158Z,4.24
2022-10-01T04:25:21.084Z,4.25
2022-10-01T04:26:21.070Z,4.32
2022-10-01T04:27:21.047Z,4.31
2022-10-01T04:28:21.245Z,4.28
2022-10-01T04:29:21.029Z,4.26
2022-10-01T04:30:21.122Z,4.24
2022-10-01T04:31:21.127Z,4.25
2022-10-01T04:32:20.992Z,4.21
2022-10-01T04:33:20.980Z,4.17
2022-10-01T04:34:20.972Z,4.25
2022-10-01T04:35:20.963Z,4.29
2022-10-01T04:36:20.985Z,4.29
2022-10-01T04:37:20.952Z,4.24
2022-10-01T04:38:20.935Z,4.25
2022-10-01T04:39:20.916Z,4.28
2022-10-01T04:40:20.932Z,4.06
2022-10-01T04:41:20.900Z,4.25
2022-10-01T04:42:21.002Z,4.25
2022-10-01T04:43:20.892Z,4.28
2022-10-01T04:44:20.869Z,4.10
2022-10-01T04:45:20.854Z,4.24
2022-10-01T04:46:20.925Z,4.14
2022-10-01T04:47:20.830Z,4.16
2022-10-01T04:48:20.884Z,4.17
2022-10-01T04:49:20.823Z,4.07
2022-10-01T04:50:20.812Z,4.28
2022-10-01T04:51:20.790Z,3.96
2022-10-01T04:52:20.784Z,4.10
2022-10-01T04:53:20.771Z,4.00
2022-10-01T04:54:20.853Z,4.11
2022-10-01T04:55:20.746Z,4.07
2022-10-01T04:56:20.778Z,4.06
2022-10-01T04:57:20.724Z,4.16
2022-10-01T04:58:20.726Z,4.07
2022-10-01T04:59:20.702Z,4.07
2022-10-01T05:00:20.725Z,3.99
2022-10-01T05:01:20.816Z,3.93
2022-10-01T05:02:20.765Z,3.86
2022-10-01T05:03:20.665Z,3.95
2022-10-01T05:04:20.651Z,3.81
2022-10-01T05:05:20.746Z,3.88
2022-10-01T05:06:20.695Z,3.81
2022-10-01T05:07:20.618Z,3.92
2022-10-01T05:08:20.608Z,3.82
2022-10-01T05:09:20.597Z,3.82
2022-10-01T05:10:20.586Z,3.84
2022-10-01T05:11:20.653Z,3.86
2022-10-01T05:12:24.418Z,3.98
2022-10-01T05:13:20.554Z,3.93
2022-10-01T05:14:20.542Z,3.78
2022-10-01T05:15:20.533Z,3.88
2022-10-01T05:16:20.645Z,3.82
2022-10-01T05:17:20.596Z,3.88
2022-10-01T05:18:20.506Z,3.95
2022-10-01T05:19:20.487Z,3.93
2022-10-01T05:20:20.487Z,3.86
2022-10-01T05:21:20.482Z,3.93
2022-10-01T05:22:20.484Z,3.89
2022-10-01T05:23:20.517Z,4.14
2022-10-01T05:24:20.438Z,4.10
2022-10-01T05:25:20.445Z,4.13
2022-10-01T05:26:20.412Z,3.95
2022-10-01T05:27:20.401Z,3.90
2022-10-01T05:28:22.644Z,4.04
2022-10-01T05:29:20.446Z,3.99
2022-10-01T05:30:20.381Z,4.08
2022-10-01T05:31:20.487Z,4.10
2022-10-01T05:32:20.369Z,4.07
2022-10-01T05:33:20.354Z,3.93
2022-10-01T05:34:20.334Z,3.98
2022-10-01T05:35:20.449Z,3.99
2022-10-01T05:36:20.308Z,4.10
2022-10-01T05:37:20.317Z,4.17
2022-10-01T05:38:20.295Z,4.10
2022-10-01T05:39:20.274Z,4.08
2022-10-01T05:40:20.268Z,4.17
2022-10-01T05:41:20.346Z,4.20
2022-10-01T05:42:20.239Z,4.26
2022-10-01T05:43:20.245Z,4.14
2022-10-01T05:44:20.246Z,4.26
2022-10-01T05:45:20.210Z,4.31
2022-10-01T05:46:20.207Z,4.16
2022-10-01T05:47:20.281Z,4.21
2022-10-01T05:48:20.190Z,4.28
2022-10-01T05:49:20.168Z,4.24
2022-10-01T05:50:20.157Z,4.35
2022-10-01T05:51:20.146Z,4.42
2022-10-01T05:52:20.134Z,4.26
2022-10-01T05:53:20.180Z,4.26
2022-10-01T05:54:20.134Z,4.35
2022-10-01T05:55:20.098Z,4.47
2022-10-01T05:56:20.090Z,4.38
2022-10-01T05:57:20.079Z,4.50
2022-10-01T05:58:20.072Z,4.59
2022-10-01T05:59:20.137Z,4.46
2022-10-01T06:00:20.075Z,4.34
2022-10-01T06:01:20.036Z,4.31
2022-10-01T06:02:20.189Z,4.31
2022-10-01T06:03:20.038Z,4.35
2022-10-01T06:04:20.004Z,4.39
2022-10-01T06:05:20.089Z,4.50
2022-10-01T06:06:19.996Z,4.36
2022-10-01T06:07:19.969Z,4.54
2022-10-01T06:08:19.957Z,4.71
2022-10-01T06:09:19.946Z,4.71
2022-10-01T06:10:19.941Z,4.91
2022-10-01T06:11:20.009Z,4.88
2022-10-01T06:12:20.178Z,4.90
2022-10-01T06:13:19.903Z,4.96
2022-10-01T06:14:19.890Z,4.88
2022-10-01T06:15:19.884Z,5.04
2022-10-01T06:16:19.943Z,5.05
2022-10-01T06:17:19.916Z,5.19
2022-10-01T06:18:19.861Z,5.15
2022-10-01T06:19:19.838Z,5.08
2022-10-01T06:20:19.829Z,5.19
2022-10-01T06:21:19.816Z,4.99
2022-10-01T06:22:19.807Z,4.99
2022-10-01T06:23:19.889Z,4.97
2022-10-01T06:24:19.809Z,4.99
2022-10-01T06:25:19.776Z,5.15
2022-10-01T06:26:19.812Z,5.09
2022-10-01T06:27:19.811Z,5.12
2022-10-01T06:28:19.794Z,5.06
2022-10-01T06:29:19.780Z,5.27
2022-10-01T06:30:19.732Z,5.26
2022-10-01T06:31:19.838Z,5.26
2022-10-01T06:32:19.720Z,5.33
2022-10-01T06:33:19.689Z,5.33
2022-10-01T06:34:19.675Z,5.29
2022-10-01T06:35:19.675Z,5.40
2022-10-01T06:36:19.660Z,5.41
2022-10-01T06:37:19.656Z,5.62
2022-10-01T06:38:19.633Z,5.52
2022-10-01T06:39:19.634Z,5.62
2022-10-01T06:40:19.610Z,5.70
2022-10-01T06:41:19.693Z,5.65
2022-10-01T06:42:19.590Z,5.65
2022-10-01T06:43:19.581Z,5.59
2022-10-01T06:44:19.585Z,5.58
2022-10-01T06:45:19.561Z,5.60
2022-10-01T06:46:19.661Z,5.59
2022-10-01T06:47:19.546Z,5.56
2022-10-01T06:48:19.550Z,5.45
2022-10-01T06:49:19.524Z,5.41
2022-10-01T06:50:19.516Z,5.42
2022-10-01T06:51:19.497Z,5.35
2022-10-01T06:52:19.549Z,5.41
2022-10-01T06:53:19.473Z,5.47
2022-10-01T06:54:19.477Z,5.29
2022-10-01T06:55:19.548Z,5.38
2022-10-01T06:56:19.443Z,5.38
2022-10-01T06:57:19.430Z,5.26
2022-10-01T06:58:19.417Z,5.37
2022-10-01T06:59:19.410Z,5.27
2022-10-01T07:00:19.494Z,5.29
2022-10-01T07:01:19.430Z,5.32
2022-10-01T07:02:19.454Z,5.48
2022-10-01T07:03:19.365Z,5.49
2022-10-01T07:04:19.376Z,5.52
2022-10-01T07:05:19.342Z,5.56
2022-10-01T07:06:19.430Z,5.56
2022-10-01T07:07:19.321Z,5.59
2022-10-01T07:08:19.309Z,5.58
2022-10-01T07:09:19.297Z,5.56
2022-10-01T07:10:19.301Z,5.63
2022-10-01T07:11:19.278Z,5.59
2022-10-01T07:12:19.334Z,5.67
2022-10-01T07:13:19.269Z,5.58
2022-10-01T07:14:19.248Z,5.59
2022-10-01T07:15:19.238Z,5.74
2022-10-01T07:16:19.252Z,5.59
2022-10-01T07:17:19.214Z,5.47
2022-10-01T07:18:19.260Z,5.49
2022-10-01T07:19:19.204Z,5.45
2022-10-01T07:20:19.212Z,5.58
2022-10-01T07:21:19.174Z,5.63
2022-10-01T07:22:19.167Z,5.74
2022-10-01T07:23:19.161Z,5.66
2022-10-01T07:24:19.143Z,5.75
2022-10-01T07:25:19.197Z,5.74
2022-10-01T07:26:19.115Z,5.87
2022-10-01T07:27:19.106Z,5.95
2022-10-01T07:28:19.281Z,5.88
2022-10-01T07:29:19.080Z,5.90
2022-10-01T07:30:19.075Z,6.01
2022-10-01T07:31:19.222Z,5.87
2022-10-01T07:32:19.049Z,5.87
2022-10-01T07:33:19.052Z,5.98
2022-10-01T07:34:19.041Z,5.87
2022-10-01T07:35:19.017Z,5.96
2022-10-01T07:36:19.035Z,5.93
2022-10-01T07:37:19.023Z,6.03
2022-10-01T07:38:19.004Z,5.96
2022-10-01T07:39:18.976Z,6.01
2022-10-01T07:40:18.981Z,6.01
2022-10-01T07:41:18.954Z,5.98
2022-10-01T07:42:18.945Z,6.01
2022-10-01T07:43:18.990Z,5.92
2022-10-01T07:44:18.932Z,5.99
2022-10-01T07:45:18.910Z,5.93
2022-10-01T07:46:18.976Z,5.92
2022-10-01T07:47:18.893Z,6.03
2022-10-01T07:48:18.891Z,6.11
2022-10-01T07:49:18.944Z,6.02
2022-10-01T07:50:18.859Z,6.17
2022-10-01T07:51:18.845Z,6.05
2022-10-01T07:52:18.860Z,6.14
2022-10-01T07:53:18.828Z,6.16
2022-10-01T07:54:18.826Z,6.16
2022-10-01T07:55:18.928Z,6.13
2022-10-01T07:56:18.805Z,6.06
2022-10-01T07:57:18.786Z,6.13
2022-10-01T07:58:18.834Z,6.03
2022-10-01T07:59:18.772Z,5.95
2022-10-01T08:00:18.750Z,5.99
2022-10-01T08:01:18.798Z,5.84
2022-10-01T08:02:18.828Z,5.87
2022-10-01T08:03:18.720Z,5.70
2022-10-01T08:04:18.709Z,5.75
2022-10-01T08:05:18.709Z,5.83
2022-10-01T08:06:22.018Z,5.78
2022-10-01T08:07:19.678Z,5.81
2022-10-01T08:08:18.686Z,5.78
2022-10-01T08:09:18.653Z,5.93
2022-10-01T08:10:18.657Z,5.98
2022-10-01T08:11:18.630Z,5.95
2022-10-01T08:12:18.618Z,6.05
2022-10-01T08:13:18.641Z,6.03
2022-10-01T08:14:18.600Z,5.90
2022-10-01T08:15:18.591Z,6.28
2022-10-01T08:16:18.755Z,6.21
2022-10-01T08:17:18.569Z,6.17
2022-10-01T08:18:18.554Z,6.19
2022-10-01T08:19:18.641Z,6.27
2022-10-01T08:20:18.535Z,6.24
2022-10-01T08:21:18.525Z,6.36
2022-10-01T08:22:18.665Z,6.28
2022-10-01T08:23:18.499Z,6.35
2022-10-01T08:24:18.520Z,6.21
2022-10-01T08:25:18.519Z,6.30
2022-10-01T08:26:18.468Z,6.38
2022-10-01T08:27:18.456Z,6.36
2022-10-01T08:28:18.531Z,6.43
2022-10-01T08:29:18.439Z,6.55
2022-10-01T08:30:18.466Z,6.48
2022-10-01T08:31:18.453Z,6.60
2022-10-01T08:32:18.405Z,6.65
2022-10-01T08:33:18.506Z,6.71
2022-10-01T08:34:18.380Z,6.69
2022-10-01T08:35:18.373Z,6.72
2022-10-01T08:36:18.425Z,6.73
2022-10-01T08:37:18.351Z,6.87
2022-10-01T08:38:18.338Z,6.73
2022-10-01T08:39:18.337Z,6.69
2022-10-01T08:40:18.345Z,6.71
2022-10-01T08:41:23.029Z,6.87
2022-10-01T08:42:19.361Z,6.86
2022-10-01T08:43:18.284Z,7.00
2022-10-01T08:44:18.284Z,6.97
2022-10-01T08:45:18.267Z,7.01
2022-10-01T08:46:18.341Z,7.09
2022-10-01T08:47:18.242Z,7.12
2022-10-01T08:48:18.262Z,7.04
2022-10-01T08:49:18.221Z,7.12
2022-10-01T08:50:18.222Z,7.14
2022-10-01T08:51:18.202Z,7.32
2022-10-01T08:52:18.188Z,7.12
2022-10-01T08:53:18.178Z,7.37
2022-10-01T08:54:18.173Z,7.23
2022-10-01T08:55:18.164Z,7.34
2022-10-01T08:56:18.179Z,7.41
2022-10-01T08:57:18.131Z,7.48
2022-10-01T08:58:18.122Z,7.63
2022-10-01T08:59:18.118Z,7.58
2022-10-01T09:00:18.107Z,7.47
2022-10-01T09:01:18.171Z,7.52
2022-10-01T09:02:18.087Z,7.67
2022-10-01T09:03:18.070Z,7.74
2022-10-01T09:04:18.113Z,7.73
2022-10-01T09:05:18.048Z,7.77
2022-10-01T09:06:18.079Z,7.76
2022-10-01T09:07:18.059Z,7.76
2022-10-01T09:08:18.018Z,7.96
2022-10-01T09:09:18.003Z,7.95
2022-10-01T09:10:17.990Z,8.06
2022-10-01T09:11:17.981Z,8.06
2022-10-01T09:12:18.050Z,8.07
2022-10-01T09:13:17.972Z,8.24
2022-10-01T09:14:17.948Z,8.31
2022-10-01T09:15:17.936Z,8.43
2022-10-01T09:16:18.010Z,8.39
2022-10-01T09:17:17.923Z,8.45
2022-10-01T09:18:17.962Z,8.43
2022-10-01T09:19:17.893Z,8.43
2022-10-01T09:20:18.011Z,8.36
2022-10-01T09:21:17.875Z,8.46
2022-10-01T09:22:17.871Z,8.45
2022-10-01T09:23:17.860Z,8.46
2022-10-01T09:24:17.871Z,8.55
2022-10-01T09:25:17.835Z,8.52
2022-10-01T09:26:20.387Z,8.54
2022-10-01T09:27:17.813Z,8.70
2022-10-01T09:28:17.905Z,8.57
2022-10-01T09:29:17.796Z,8.60
2022-10-01T09:30:17.850Z,8.43
2022-10-01T09:31:17.844Z,8.47
2022-10-01T09:32:17.749Z,8.42
2022-10-01T09:33:17.750Z,8.27
2022-10-01T09:34:17.736Z,8.22
2022-10-01T09:35:17.720Z,8.21
2022-10-01T09:36:17.741Z,8.09
2022-10-01T09:37:17.697Z,8.20
2022-10-01T09:38:17.686Z,8.18
2022-10-01T09:39:17.678Z,8.03
2022-10-01T09:40:17.667Z,7.91
2022-10-01T09:41:17.653Z,7.86
2022-10-01T09:42:17.702Z,7.85
2022-10-01T09:43:17.635Z,7.82
2022-10-01T09:44:18.869Z,7.89
2022-10-01T09:45:17.617Z,7.88
2022-10-01T09:46:17.792Z,7.86
2022-10-01T09:47:17.631Z,8.00
2022-10-01T09:48:17.614Z,8.10
2022-10-01T09:49:17.567Z,8.14
2022-10-01T09:50:17.556Z,8.14
2022-10-01T09:51:17.546Z,8.17
2022-10-01T09:52:17.544Z,8.21
2022-10-01T09:53:17.527Z,8.39
2022-10-01T09:54:17.606Z,8.18
2022-10-01T09:55:17.501Z,8.13
2022-10-01T09:56:17.500Z,8.22
2022-10-01T09:57:17.495Z,8.18
2022-10-01T09:58:17.469Z,8.24
2022-10-01T09:59:17.461Z,8.28
2022-10-01T10:00:17.518Z,8.27
2022-10-01T10:01:17.435Z,8.22
2022-10-01T10:02:17.671Z,8.18
2022-10-01T10:03:17.641Z,8.34
2022-10-01T10:04:20.020Z,8.36
2022-10-01T10:05:17.399Z,8.28
2022-10-01T10:06:17.466Z,8.31
2022-10-01T10:07:17.377Z,8.36
2022-10-01T10:08:17.372Z,8.40
2022-10-01T10:09:17.347Z,8.55
2022-10-01T10:10:18.616Z,8.60
2022-10-01T10:11:17.337Z,8.70
2022-10-01T10:12:17.354Z,8.71
2022-10-01T10:13:17.315Z,8.83
2022-10-01T10:14:17.299Z,8.80
2022-10-01T10:15:17.286Z,8.79
2022-10-01T10:16:17.366Z,8.70
2022-10-01T10:17:17.278Z,8.67
2022-10-01T10:18:21.553Z,8.55
2022-10-01T10:19:18.242Z,8.55
2022-10-01T10:20:17.228Z,8.50
2022-10-01T10:21:17.221Z,8.52
2022-10-01T10:22:17.223Z,8.61
2022-10-01T10:23:17.200Z,8.70
2022-10-01T10:24:17.256Z,8.68
2022-10-01T10:25:17.179Z,8.71
2022-10-01T10:26:17.164Z,8.68
2022-10-01T10:27:17.168Z,8.82
2022-10-01T10:28:17.296Z,8.73
2022-10-01T10:29:17.140Z,8.78
2022-10-01T10:30:17.156Z,8.85
2022-10-01T10:31:17.188Z,8.82
2022-10-01T10:32:17.127Z,8.98
2022-10-01T10:33:17.102Z,8.86
2022-10-01T10:34:17.088Z,8.86
2022-10-01T10:35:17.072Z,9.03
2022-10-01T10:36:17.073Z,9.03
2022-10-01T10:37:17.259Z,8.98
2022-10-01T10:38:17.060Z,9.01
2022-10-01T10:39:17.030Z,9.12
2022-10-01T10:40:17.018Z,9.13
2022-10-01T10:41:17.021Z,9.12
2022-10-01T10:42:17.075Z,9.12
2022-10-01T10:43:17.007Z,9.15
2022-10-01T10:44:16.977Z,9.13
2022-10-01T10:45:16.993Z,9.04
2022-10-01T10:46:16.986Z,9.00
2022-10-01T10:47:16.954Z,8.98
2022-10-01T10:48:16.982Z,9.06
2022-10-01T10:49:16.922Z,9.03
2022-10-01T10:50:16.915Z,9.13
2022-10-01T10:51:16.899Z,9.24
2022-10-01T10:52:16.891Z,9.19
2022-10-01T10:53:17.099Z,9.30
2022-10-01T10:54:16.969Z,9.26
2022-10-01T10:55:16.858Z,9.34
2022-10-01T10:56:16.846Z,9.24
2022-10-01T10:57:16.838Z,9.12
2022-10-01T10:58:16.930Z,9.27
2022-10-01T10:59:16.814Z,9.27
2022-10-01T11:00:16.838Z,9.27
2022-10-01T11:01:16.867Z,9.32
2022-10-01T11:02:17.087Z,9.41
2022-10-01T11:03:16.774Z,9.59
2022-10-01T11:04:16.802Z,9.59
2022-10-01T11:05:16.756Z,9.52
2022-10-01T11:06:16.850Z,9.70
2022-10-01T11:07:16.736Z,9.68
2022-10-01T11:08:17.900Z,9.37
2022-10-01T11:09:16.711Z,9.20
2022-10-01T11:10:16.698Z,9.23
2022-10-01T11:11:16.697Z,9.17
2022-10-01T11:12:16.698Z,9.19
2022-10-01T11:13:16.664Z,9.20
2022-10-01T11:14:20.203Z,9.24
2022-10-01T11:15:17.643Z,9.38
2022-10-01T11:16:16.727Z,9.44
2022-10-01T11:17:16.628Z,9.42
2022-10-01T11:18:16.623Z,9.49
2022-10-01T11:19:16.610Z,9.42
2022-10-01T11:20:20.580Z,9.55
2022-10-01T11:21:16.583Z,9.52
2022-10-01T11:22:16.575Z,9.58
2022-10-01T11:23:16.565Z,9.62
2022-10-01T11:24:16.557Z,9.62
2022-10-01T11:25:16.564Z,9.45
2022-10-01T11:26:16.561Z,9.55
2022-10-01T11:27:16.530Z,9.59
2022-10-01T11:28:16.635Z,9.62
2022-10-01T11:29:16.507Z,9.62
2022-10-01T11:30:16.536Z,9.63
2022-10-01T11:31:16.726Z,9.71
2022-10-01T11:32:16.462Z,9.78
2022-10-01T11:33:16.517Z,9.73
2022-10-01T11:34:16.446Z,9.70
2022-10-01T11:35:16.443Z,9.70
2022-10-01T11:36:16.468Z,9.75
2022-10-01T11:37:16.411Z,9.92
2022-10-01T11:38:16.400Z,10.04
2022-10-01T11:39:16.390Z,10.22
2022-10-01T11:40:16.386Z,9.78
2022-10-01T11:41:16.391Z,9.53
2022-10-01T11:42:16.354Z,9.63
2022-10-01T11:43:16.359Z,9.77
2022-10-01T11:44:16.331Z,9.75
2022-10-01T11:45:16.317Z,10.01
2022-10-01T11:46:16.377Z,9.99
2022-10-01T11:47:16.375Z,10.06
2022-10-01T11:48:16.288Z,9.95
2022-10-01T11:49:16.276Z,9.73
2022-10-01T11:50:16.274Z,9.60
2022-10-01T11:51:16.249Z,9.56
2022-10-01T11:52:16.265Z,9.55
2022-10-01T11:53:16.280Z,9.62
2022-10-01T11:54:16.218Z,9.58
2022-10-01T11:55:16.205Z,9.53
2022-10-01T11:56:16.198Z,9.56
2022-10-01T11:57:16.189Z,9.40
2022-10-01T11:58:16.186Z,9.26
2022-10-01T11:59:16.241Z,9.42
2022-10-01T12:00:16.166Z,9.55
2022-10-01T12:01:16.137Z,9.52
2022-10-01T12:02:16.217Z,9.40
2022-10-01T12:03:16.134Z,9.41
2022-10-01T12:04:16.107Z,9.65
2022-10-01T12:05:16.159Z,9.65
2022-10-01T12:06:16.083Z,9.74
2022-10-01T12:07:16.073Z,9.74
2022-10-01T12:08:16.088Z,9.59
2022-10-01T12:09:16.063Z,9.68
2022-10-01T12:10:16.044Z,9.63
2022-10-01T12:11:16.105Z,9.58
2022-10-01T12:12:16.022Z,9.60
2022-10-01T12:13:16.015Z,9.41
2022-10-01T12:14:15.997Z,9.45
2022-10-01T12:15:15.998Z,9.35
2022-10-01T12:16:16.191Z,9.48
2022-10-01T12:17:16.002Z,9.26
2022-10-01T12:18:15.955Z,9.49
2022-10-01T12:19:15.953Z,9.49
2022-10-01T12:20:15.936Z,9.56
2022-10-01T12:21:15.928Z,9.58
2022-10-01T12:22:15.908Z,9.38
2022-10-01T12:23:15.913Z,9.55
2022-10-01T12:24:15.912Z,9.59
2022-10-01T12:25:15.879Z,9.42
2022-10-01T12:26:15.864Z,9.52
2022-10-01T12:27:15.865Z,9.41
2022-10-01T12:28:15.915Z,9.40
2022-10-01T12:29:15.914Z,9.32
2022-10-01T12:30:15.823Z,9.31
2022-10-01T12:31:15.836Z,9.26
2022-10-01T12:32:15.862Z,9.27
2022-10-01T12:33:15.788Z,9.22
2022-10-01T12:34:15.786Z,9.26
2022-10-01T12:35:15.835Z,9.19
2022-10-01T12:36:15.761Z,9.10
2022-10-01T12:37:15.747Z,9.01
2022-10-01T12:38:15.747Z,9.15
2022-10-01T12:39:15.728Z,9.23
2022-10-01T12:40:15.731Z,9.37
2022-10-01T12:41:15.794Z,9.41
2022-10-01T12:42:15.905Z,9.37
2022-10-01T12:43:15.684Z,9.41
2022-10-01T12:44:15.671Z,9.45
2022-10-01T12:45:15.667Z,9.45
2022-10-01T12:46:15.725Z,9.56
2022-10-01T12:47:15.656Z,9.40
2022-10-01T12:48:15.726Z,9.45
2022-10-01T12:49:15.613Z,9.49
2022-10-01T12:50:15.603Z,9.58
2022-10-01T12:51:15.597Z,9.56
2022-10-01T12:52:15.589Z,9.38
2022-10-01T12:53:15.629Z,9.30
2022-10-01T12:54:15.573Z,9.42
2022-10-01T12:55:15.551Z,9.45
2022-10-01T12:56:15.569Z,9.55
2022-10-01T12:57:15.529Z,9.37
2022-10-01T12:58:15.517Z,9.26
2022-10-01T12:59:15.511Z,9.24
2022-10-01T13:00:15.609Z,9.24
2022-10-01T13:01:15.578Z,9.19
2022-10-01T13:02:15.588Z,9.34
2022-10-01T13:03:15.472Z,9.23
2022-10-01T13:04:15.451Z,9.30
2022-10-01T13:05:15.446Z,9.45
2022-10-01T13:06:15.491Z,9.55
2022-10-01T13:07:15.464Z,9.52
2022-10-01T13:08:15.409Z,9.58
2022-10-01T13:09:15.467Z,9.58
2022-10-01T13:10:15.388Z,9.99
2022-10-01T13:11:15.384Z,10.25
2022-10-01T13:12:15.422Z,10.52
2022-10-01T13:13:15.351Z,10.60
2022-10-01T13:14:15.346Z,10.60
2022-10-01T13:15:15.335Z,10.47
2022-10-01T13:16:15.396Z,10.60
2022-10-01T13:17:15.397Z,10.98
2022-10-01T13:18:15.306Z,11.05